Time;durP1;ratioP1;P1;durP2;ratioP2;P2;SDS_P1;SDS_P2;PMS_P1;PMS_P2;Temp;Humidity;BMP_temperature;BMP_pressure;BME280_temperature;BME280_humidity;BME280_pressure;Samples;Min_cycle;Max_cycle;Signal;HPM_P1;HPM_P2
2022/07/29 00:02:01;;;;;;;6.47;2.38;;;;;;;18.00;100.00;100588.16;5069232;28;20550;-70
2022/07/29 00:04:27;;;;;;;6.10;2.15;;;;;;;17.90;100.00;100581.00;5074789;28;20032;-70
2022/07/29 00:06:52;;;;;;;10.82;2.60;;;;;;;17.74;100.00;100573.38;5074075;28;20107;-71
2022/07/29 00:09:18;;;;;;;11.23;2.10;;;;;;;17.54;100.00;100574.03;5074067;28;20047;-72
2022/07/29 00:11:43;;;;;;;7.53;2.20;;;;;;;17.10;100.00;100540.22;5073023;28;20029;-72
2022/07/29 00:14:08;;;;;;;6.22;2.17;;;;;;;16.74;100.00;100552.56;5070256;28;20526;-71
2022/07/29 00:16:34;;;;;;;6.00;2.47;;;;;;;16.30;100.00;100545.13;5054262;28;20055;-72
2022/07/29 00:19:00;;;;;;;3.85;2.08;;;;;;;15.93;100.00;100530.16;5073347;28;20024;-72
2022/07/29 00:21:25;;;;;;;4.82;1.83;;;;;;;15.71;100.00;100529.97;5077346;28;20470;-72
2022/07/29 00:23:51;;;;;;;5.20;2.10;;;;;;;15.53;100.00;100520.63;5060263;28;20078;-72
2022/07/29 00:26:16;;;;;;;6.47;1.85;;;;;;;15.42;100.00;100525.75;5083084;28;20463;-72
2022/07/29 00:28:41;;;;;;;8.07;2.53;;;;;;;15.40;100.00;100525.03;5068609;28;20028;-72
2022/07/29 00:31:07;;;;;;;7.28;2.17;;;;;;;15.26;100.00;100502.13;5067735;28;20475;-72
2022/07/29 00:33:33;;;;;;;6.28;2.40;;;;;;;15.41;100.00;100516.97;5077279;28;20028;-71
2022/07/29 00:35:58;;;;;;;10.98;2.60;;;;;;;15.46;100.00;100508.72;5086359;28;20043;-71
2022/07/29 00:38:24;;;;;;;7.15;2.40;;;;;;;15.64;100.00;100520.72;5065475;28;20021;-71
2022/07/29 00:40:49;;;;;;;7.75;2.22;;;;;;;15.63;100.00;100495.19;5063509;28;20040;-71
2022/07/29 00:43:16;;;;;;;4.60;2.28;;;;;;;15.75;100.00;100510.22;5069335;28;20020;-71
2022/07/29 00:45:42;;;;;;;5.40;2.45;;;;;;;15.78;100.00;100510.03;5084498;28;20534;-71
2022/07/29 00:48:08;;;;;;;6.25;2.65;;;;;;;15.82;100.00;100508.84;5084952;28;20028;-71
2022/07/29 00:50:34;;;;;;;4.78;1.95;;;;;;;15.77;100.00;100479.19;5066010;28;20021;-71
2022/07/29 00:53:00;;;;;;;11.38;2.75;;;;;;;15.80;100.00;100476.31;5082677;28;20031;-71
2022/07/29 00:55:26;;;;;;;10.40;2.35;;;;;;;15.93;100.00;100492.19;5098498;27;20073;-71
2022/07/29 00:57:52;;;;;;;3.72;1.98;;;;;;;15.93;100.00;100487.72;5062936;28;20037;-71
2022/07/29 01:00:21;;;;;;;9.95;2.35;;;;;;;15.94;100.00;100484.13;5069600;28;20028;-71
2022/07/29 01:02:50;;;;;;;6.55;2.85;;;;;;;15.93;100.00;100477.13;5069906;28;20256;-71
2022/07/29 01:05:18;;;;;;;7.63;2.95;;;;;;;16.08;100.00;100496.41;5056020;28;20097;-71
2022/07/29 01:07:44;;;;;;;15.93;2.67;;;;;;;16.07;100.00;100484.97;5066741;28;20060;-71
2022/07/29 01:10:12;;;;;;;6.88;2.08;;;;;;;16.13;100.00;100484.50;5064438;28;20036;-72
2022/07/29 01:12:38;;;;;;;6.47;2.20;;;;;;;16.14;100.00;100475.59;5069214;28;20021;-70
2022/07/29 01:15:07;;;;;;;5.20;2.05;;;;;;;16.25;100.00;100483.66;5064387;28;20025;-71
2022/07/29 01:17:38;;;;;;;8.35;2.28;;;;;;;16.23;100.00;100480.25;5068798;28;20508;-70
2022/07/29 01:20:14;;;;;;;7.75;2.10;;;;;;;16.21;100.00;100473.38;5060309;28;20059;-69
2022/07/29 01:22:58;;;;;;;7.30;2.38;;;;;;;16.23;100.00;100474.94;5072857;28;20059;-70
2022/07/29 01:25:42;;;;;;;4.75;2.15;;;;;;;16.31;100.00;100479.69;5065257;28;20021;-70
2022/07/29 01:28:29;;;;;;;4.55;2.08;;;;;;;16.30;100.00;100470.88;5051922;28;20041;-70
2022/07/29 01:30:55;;;;;;;3.90;2.10;;;;;;;16.26;100.00;100477.38;5055255;28;20391;-70
2022/07/29 01:36:12;;;;;;;3.65;2.05;;;;;;;16.34;100.00;100477.66;5059362;28;20151;-71
2022/07/29 01:38:39;;;;;;;4.13;1.95;;;;;;;16.04;100.00;100418.91;5072726;28;20032;-70
2022/07/29 01:41:31;;;;;;;6.10;2.22;;;;;;;16.39;100.00;100469.38;5074799;28;20044;-69
2022/07/29 01:44:00;;;;;;;4.82;2.00;;;;;;;16.29;100.00;100445.31;5047725;28;20043;-69
2022/07/29 01:46:32;;;;;;;5.65;2.15;;;;;;;16.39;100.00;100447.31;5097788;27;20024;-69
2022/07/29 01:49:01;;;;;;;4.90;1.90;;;;;;;16.51;100.00;100463.16;5074481;28;20066;-70
2022/07/29 01:51:38;;;;;;;5.18;2.08;;;;;;;16.36;100.00;100430.66;5059973;28;20029;-70
2022/07/29 01:54:18;;;;;;;7.40;2.38;;;;;;;16.60;100.00;100461.66;5076778;28;20036;-70
2022/07/29 01:56:45;;;;;;;5.20;1.85;;;;;;;16.32;100.00;100409.78;5054287;28;20384;-70
2022/07/29 01:59:11;;;;;;;4.15;1.83;;;;;;;16.66;100.00;100458.56;5060313;28;20032;-70
2022/07/29 02:01:39;;;;;;;7.03;2.00;;;;;;;16.68;100.00;100449.53;5064200;28;20036;-69
2022/07/29 02:04:06;;;;;;;5.97;2.63;;;;;;;16.61;100.00;100434.19;5071539;28;20029;-70
2022/07/29 02:06:33;;;;;;;3.55;1.92;;;;;;;16.69;100.00;100445.09;5068853;28;20024;-70
2022/07/29 02:08:59;;;;;;;4.40;2.28;;;;;;;16.73;100.00;100457.13;5086503;28;20027;-70
2022/07/29 02:11:25;;;;;;;4.85;1.85;;;;;;;16.71;100.00;100459.06;5098630;28;20029;-70
2022/07/29 02:13:52;;;;;;;4.00;1.70;;;;;;;16.61;100.00;100458.91;5062254;28;20483;-69
2022/07/29 02:16:21;;;;;;;4.75;2.15;;;;;;;16.63;100.00;100469.38;5072266;28;20417;-70
2022/07/29 02:18:48;;;;;;;5.35;2.42;;;;;;;16.58;100.00;100469.75;5069708;28;20077;-70
2022/07/29 02:21:15;;;;;;;10.35;2.70;;;;;;;16.61;100.00;100473.97;5075277;28;20029;-70
2022/07/29 02:23:42;;;;;;;5.50;2.20;;;;;;;16.48;100.00;100462.53;5050801;28;20041;-71
2022/07/29 02:26:08;;;;;;;8.43;1.85;;;;;;;16.36;100.00;100459.81;5101515;28;20036;-71
2022/07/29 02:28:34;;;;;;;4.88;2.20;;;;;;;16.35;100.00;100463.47;5070738;28;20031;-71
2022/07/29 02:31:01;;;;;;;4.40;2.40;;;;;;;16.23;100.00;100444.91;5069882;28;20033;-71
2022/07/29 02:33:27;;;;;;;8.45;2.78;;;;;;;16.23;100.00;100452.88;5074933;28;20055;-71
2022/07/29 02:35:54;;;;;;;5.10;2.50;;;;;;;16.25;100.00;100459.78;5056552;28;20031;-71
2022/07/29 02:41:28;;;;;;;5.55;2.38;;;;;;;16.09;100.00;100443.25;5059145;28;20037;-71
2022/07/29 02:43:57;;;;;;;4.95;2.83;;;;;;;16.08;100.00;100454.84;5052428;28;20041;-71
2022/07/29 02:46:34;;;;;;;4.15;2.10;;;;;;;16.06;100.00;100450.59;5069870;28;20021;-71
2022/07/29 02:49:07;;;;;;;3.42;2.10;;;;;;;16.06;100.00;100445.28;5099467;28;20024;-71
2022/07/29 02:51:54;;;;;;;6.50;2.35;;;;;;;16.08;100.00;100438.94;5074058;28;20029;-71
2022/07/29 02:54:24;;;;;;;7.20;1.80;;;;;;;16.20;100.00;100451.28;5087215;28;20036;-71
2022/07/29 02:56:53;;;;;;;6.43;2.20;;;;;;;16.23;100.00;100460.81;5058933;28;20159;-71
2022/07/29 02:59:22;;;;;;;4.28;2.35;;;;;;;16.23;100.00;100459.03;5074589;28;20111;-71
2022/07/29 03:01:48;;;;;;;5.40;2.65;;;;;;;16.16;100.00;100441.88;5075547;28;20112;-70
2022/07/29 03:04:14;;;;;;;11.70;2.22;;;;;;;16.17;100.00;100440.91;5064044;28;20480;-70
2022/07/29 03:06:40;;;;;;;6.80;2.95;;;;;;;16.18;100.00;100447.94;5105463;28;20032;-70
2022/07/29 03:09:07;;;;;;;6.32;2.40;;;;;;;16.19;100.00;100454.91;5064876;28;20052;-70
2022/07/29 03:11:32;;;;;;;5.55;2.55;;;;;;;16.15;100.00;100452.59;5067486;28;20029;-70
2022/07/29 03:13:58;;;;;;;6.50;2.30;;;;;;;16.16;100.00;100452.47;5067679;28;20021;-70
2022/07/29 03:16:24;;;;;;;5.40;2.75;;;;;;;16.27;100.00;100471.13;5055371;28;20116;-70
2022/07/29 03:18:50;;;;;;;5.15;2.22;;;;;;;16.16;100.00;100455.13;5096310;27;20071;-70
2022/07/29 03:21:16;;;;;;;8.57;2.13;;;;;;;16.08;100.00;100444.25;5055679;28;20460;-70
2022/07/29 03:23:47;;;;;;;4.57;2.10;;;;;;;16.22;100.00;100467.94;5101662;27;20029;-71
2022/07/29 03:26:13;;;;;;;3.78;2.03;;;;;;;16.17;100.00;100459.47;5062457;28;20055;-70
2022/07/29 03:28:38;;;;;;;5.22;2.30;;;;;;;16.19;100.00;100456.69;5075151;28;20475;-70
2022/07/29 03:31:03;;;;;;;7.82;2.63;;;;;;;16.23;100.00;100463.47;5056691;28;20021;-70
2022/07/29 03:33:30;;;;;;;5.47;2.40;;;;;;;16.20;100.00;100461.91;5065500;28;20432;-70
2022/07/29 03:35:55;;;;;;;5.15;2.15;;;;;;;16.17;100.00;100454.19;5073851;28;20036;-70
2022/07/29 03:38:23;;;;;;;4.28;2.20;;;;;;;16.14;100.00;100465.00;5073608;28;20020;-70
2022/07/29 03:40:56;;;;;;;3.88;2.40;;;;;;;15.86;100.00;100438.78;5074757;28;20051;-71
2022/07/29 03:43:22;;;;;;;4.38;2.03;;;;;;;15.95;100.00;100479.69;5082265;28;20108;-71
2022/07/29 03:45:50;;;;;;;5.63;2.53;;;;;;;15.78;100.00;100467.63;5094773;27;20138;-71
2022/07/29 03:48:18;;;;;;;6.22;2.50;;;;;;;15.72;100.00;100468.03;5067249;28;20028;-71
2022/07/29 03:50:44;;;;;;;4.30;2.45;;;;;;;15.59;100.00;100457.47;5055387;28;20024;-70
2022/07/29 03:53:09;;;;;;;4.35;2.58;;;;;;;15.50;100.00;100447.53;5059558;28;20024;-70
2022/07/29 03:55:43;;;;;;;10.18;3.25;;;;;;;15.41;100.00;100449.94;5090531;28;20448;-70
2022/07/29 03:58:10;;;;;;;10.43;2.92;;;;;;;15.01;100.00;100407.66;5056546;28;20395;-70
2022/07/29 04:00:37;;;;;;;7.90;3.20;;;;;;;14.98;100.00;100426.38;5092523;28;20486;-71
2022/07/29 04:03:03;;;;;;;7.22;3.45;;;;;;;15.14;100.00;100455.31;5071598;28;20336;-70
2022/07/29 04:05:29;;;;;;;4.20;2.70;;;;;;;15.15;100.00;100457.84;5068512;28;20056;-71
2022/07/29 04:07:54;;;;;;;6.90;3.00;;;;;;;15.12;100.00;100463.34;5074575;28;20474;-70
2022/07/29 04:10:20;;;;;;;4.45;2.80;;;;;;;14.79;100.00;100404.78;5071935;28;20107;-70
2022/07/29 04:12:45;;;;;;;6.72;3.03;;;;;;;14.87;100.00;100431.53;5076710;28;20111;-71
2022/07/29 04:15:11;;;;;;;5.60;2.75;;;;;;;14.87;100.00;100434.19;5060612;28;20112;-71
2022/07/29 04:17:36;;;;;;;6.75;3.65;;;;;;;14.97;100.00;100453.78;5072447;28;20016;-71
2022/07/29 04:20:02;;;;;;;5.10;3.28;;;;;;;14.92;100.00;100452.41;5059161;28;20162;-71
2022/07/29 04:22:27;;;;;;;6.68;3.95;;;;;;;14.81;100.00;100434.63;5073755;28;20029;-71
2022/07/29 04:24:53;;;;;;;7.10;3.28;;;;;;;14.88;100.00;100451.78;5068744;28;20020;-72
2022/07/29 04:27:18;;;;;;;6.53;3.88;;;;;;;14.83;100.00;100443.31;5056496;28;20082;-72
2022/07/29 04:29:43;;;;;;;6.10;3.50;;;;;;;14.70;100.00;100445.09;5075935;28;20060;-72
2022/07/29 04:32:09;;;;;;;5.60;4.05;;;;;;;14.72;100.00;100459.03;5052787;28;20399;-72
2022/07/29 04:34:34;;;;;;;5.63;4.07;;;;;;;14.55;100.00;100435.50;5073298;28;20044;-72
2022/07/29 04:37:00;;;;;;;7.75;4.05;;;;;;;14.62;100.00;100448.22;5075807;28;20384;-72
2022/07/29 04:39:25;;;;;;;16.40;5.07;;;;;;;14.67;100.00;100461.13;5062569;28;20062;-72
2022/07/29 04:41:51;;;;;;;7.00;4.43;;;;;;;14.59;100.00;100444.94;5062456;28;20116;-72
2022/07/29 04:44:16;;;;;;;8.23;4.57;;;;;;;14.59;100.00;100442.28;5066724;28;20031;-72
2022/07/29 04:46:41;;;;;;;5.78;4.15;;;;;;;14.69;100.00;100453.97;5056140;28;20031;-73
2022/07/29 04:49:07;;;;;;;12.07;5.00;;;;;;;14.64;100.00;100453.41;5083483;28;20402;-72
2022/07/29 04:51:33;;;;;;;8.52;5.07;;;;;;;14.60;100.00;100444.00;5052459;28;20021;-72
2022/07/29 04:53:58;;;;;;;9.80;4.57;;;;;;;14.56;100.00;100443.34;5078220;28;20028;-72
2022/07/29 04:56:24;;;;;;;8.13;4.65;;;;;;;14.45;100.00;100421.19;5072319;28;20174;-73
2022/07/29 04:58:49;;;;;;;7.60;4.45;;;;;;;14.56;100.00;100437.22;5091289;28;20036;-73
2022/07/29 05:01:14;;;;;;;10.02;5.95;;;;;;;14.60;100.00;100446.63;5062427;28;20465;-73
2022/07/29 05:03:40;;;;;;;6.97;4.55;;;;;;;14.70;100.00;100466.25;5072465;28;20111;-73
2022/07/29 05:06:06;;;;;;;8.65;5.10;;;;;;;14.49;100.00;100425.34;5083985;28;20049;-73
2022/07/29 05:08:31;;;;;;;5.38;3.92;;;;;;;14.65;100.00;100457.75;5068774;28;20037;-72
2022/07/29 05:10:56;;;;;;;17.27;4.82;;;;;;;14.56;100.00;100439.84;5040785;28;20128;-72
2022/07/29 05:13:22;;;;;;;8.57;4.80;;;;;;;14.74;100.00;100467.72;5050853;28;20104;-72
2022/07/29 05:15:47;;;;;;;7.80;4.65;;;;;;;14.66;100.00;100454.16;5059091;28;20457;-72
2022/07/29 05:18:13;;;;;;;6.88;5.03;;;;;;;14.82;100.00;100470.72;5053579;28;20399;-73
2022/07/29 05:20:39;;;;;;;10.82;4.82;;;;;;;14.76;100.00;100460.53;5051144;28;20029;-72
2022/07/29 05:23:04;;;;;;;8.27;4.95;;;;;;;14.78;100.00;100470.06;5053014;28;20139;-73
2022/07/29 05:25:30;;;;;;;9.40;4.50;;;;;;;14.68;100.00;100441.69;5057564;28;20032;-72
2022/07/29 05:27:55;;;;;;;9.90;4.88;;;;;;;14.73;100.00;100451.03;5063802;28;20029;-72
2022/07/29 05:30:21;;;;;;;11.00;5.15;;;;;;;14.76;100.00;100460.53;5029941;28;20031;-73
2022/07/29 05:32:47;;;;;;;15.18;5.25;;;;;;;14.84;100.00;100468.78;5020136;28;20037;-72
2022/07/29 05:35:14;;;;;;;7.38;4.70;;;;;;;14.82;100.00;100471.56;5027909;28;20090;-72
2022/07/29 05:37:39;;;;;;;8.77;5.07;;;;;;;14.76;100.00;100460.53;5066415;28;20423;-72
2022/07/29 05:40:05;;;;;;;8.75;4.82;;;;;;;14.90;100.00;100484.28;5062249;28;20098;-72
2022/07/29 05:42:31;;;;;;;7.85;5.13;;;;;;;14.83;100.00;100488.28;5058572;28;20082;-72
2022/07/29 05:44:56;;;;;;;6.53;4.60;;;;;;;14.87;100.00;100497.69;5066874;28;20086;-72
2022/07/29 05:47:22;;;;;;;11.52;5.47;;;;;;;14.84;100.00;100489.97;5105460;27;20016;-72
2022/07/29 05:49:48;;;;;;;10.35;5.28;;;;;;;14.87;100.00;100502.97;5064945;28;20032;-72
2022/07/29 05:52:14;;;;;;;6.30;4.63;;;;;;;14.95;100.00;100513.91;5052915;28;20024;-72
2022/07/29 05:54:39;;;;;;;5.45;4.25;;;;;;;14.77;100.00;100484.22;5069792;28;20040;-71
2022/07/29 05:57:05;;;;;;;7.78;5.13;;;;;;;14.92;100.00;100503.53;5052112;28;20017;-72
2022/07/29 05:59:31;;;;;;;6.80;4.85;;;;;;;14.75;100.00;100485.28;5082391;28;20107;-72
2022/07/29 06:01:57;;;;;;;9.10;5.80;;;;;;;14.79;100.00;100498.22;5068923;28;20108;-72
2022/07/29 06:04:22;;;;;;;8.88;5.68;;;;;;;14.91;100.00;100519.50;5056598;28;20108;-72
2022/07/29 06:06:48;;;;;;;8.65;5.80;;;;;;;14.82;100.00;100505.09;5048453;28;20033;-71
2022/07/29 06:09:14;;;;;;;8.77;5.70;;;;;;;14.78;100.00;100504.44;5036621;28;20805;-72
2022/07/29 06:11:40;;;;;;;7.38;4.72;;;;;;;14.79;100.00;100507.94;5065076;28;20079;-72
2022/07/29 06:14:05;;;;;;;9.70;6.40;;;;;;;14.80;100.00;100509.66;5068245;28;20483;-72
2022/07/29 06:16:31;;;;;;;7.57;5.30;;;;;;;14.82;100.00;100518.34;5070593;28;20112;-72
2022/07/29 06:18:56;;;;;;;10.85;5.68;;;;;;;14.75;100.00;100504.66;5077705;28;20372;-72
2022/07/29 06:21:21;;;;;;;10.43;6.40;;;;;;;14.78;100.00;100524.75;5050625;28;20030;-72
2022/07/29 06:23:47;;;;;;;9.38;6.57;;;;;;;14.82;100.00;100526.25;5061547;28;20025;-72
2022/07/29 06:26:13;;;;;;;6.72;5.35;;;;;;;14.88;100.00;100544.38;5058741;28;20103;-71
2022/07/29 06:28:38;;;;;;;10.80;6.45;;;;;;;14.77;100.00;100515.13;5056988;28;20033;-71
2022/07/29 06:31:05;;;;;;;9.13;5.85;;;;;;;14.88;100.00;100527.66;5059022;28;20044;-71
2022/07/29 06:33:30;;;;;;;11.85;6.03;;;;;;;15.01;100.00;100545.25;5050912;28;20035;-71
2022/07/29 06:35:56;;;;;;;7.78;5.65;;;;;;;14.92;100.00;100522.06;5063320;28;20032;-72
2022/07/29 06:38:21;;;;;;;9.43;6.45;;;;;;;15.15;100.00;100557.59;5078254;28;20031;-72
2022/07/29 06:41:03;;;;;;;11.18;6.07;;;;;;;15.14;100.00;100540.84;5070683;28;20029;-72
2022/07/29 06:43:41;;;;;;;8.85;5.82;;;;;;;15.23;100.00;100556.16;5069710;28;20070;-72
2022/07/29 06:46:17;;;;;;;12.18;7.22;;;;;;;15.41;100.00;100550.56;5055539;28;20075;-72
2022/07/29 06:48:43;;;;;;;7.88;6.60;;;;;;;15.42;100.00;100533.69;5065522;28;20082;-72
2022/07/29 06:51:11;;;;;;;11.02;7.57;;;;;;;15.65;100.00;100543.59;5055732;28;20033;-72
2022/07/29 06:53:36;;;;;;;7.35;6.10;;;;;;;15.77;100.00;100535.69;5055032;28;20037;-72
2022/07/29 06:56:08;;;;;;;9.13;6.88;;;;;;;15.88;100.00;100536.72;5059513;28;20052;-72
2022/07/29 06:58:36;;;;;;;15.57;6.97;;;;;;;15.94;100.00;100547.75;5072558;28;20044;-72
2022/07/29 07:01:03;;;;;;;9.85;6.55;;;;;;;16.04;100.00;100548.81;5042946;28;20106;-72
2022/07/29 07:03:29;;;;;;;10.15;6.20;;;;;;;16.00;100.00;100547.31;5065566;28;20057;-72
2022/07/29 07:05:55;;;;;;;18.13;5.82;;;;;;;16.09;100.00;100561.72;5054285;28;20056;-72
2022/07/29 07:08:20;;;;;;;8.60;5.47;;;;;;;16.17;100.00;100562.88;5054125;28;20051;-70
2022/07/29 07:10:46;;;;;;;8.50;5.40;;;;;;;16.18;100.00;100540.72;5080721;28;20033;-72
2022/07/29 07:13:11;;;;;;;11.25;5.70;;;;;;;16.31;100.00;100561.91;5049216;28;20021;-72
2022/07/29 07:15:37;;;;;;;6.97;5.45;;;;;;;16.60;100.00;100578.41;5062203;28;20038;-71
2022/07/29 07:18:03;;;;;;;8.65;5.47;;;;;;;16.73;100.00;100573.91;5063047;28;20035;-72
2022/07/29 07:20:29;;;;;;;8.10;5.68;;;;;;;16.69;100.00;100556.53;5077477;28;20036;-72
2022/07/29 07:22:54;;;;;;;9.60;5.05;;;;;;;16.88;100.00;100567.47;5068946;28;20724;-71
2022/07/29 07:25:20;;;;;;;8.68;5.93;;;;;;;16.96;100.00;100565.13;5071066;28;20036;-71
2022/07/29 07:27:45;;;;;;;7.82;5.20;;;;;;;17.20;100.00;100579.22;5065334;28;20111;-71
2022/07/29 07:30:11;;;;;;;11.85;6.25;;;;;;;17.23;100.00;100559.56;5054826;28;20486;-71
2022/07/29 07:32:36;;;;;;;10.23;5.75;;;;;;;17.13;100.00;100534.66;5039445;28;20053;-72
2022/07/29 07:35:07;;;;;;;8.48;5.68;;;;;;;17.32;100.00;100578.31;5061981;28;20028;-72
2022/07/29 07:37:32;;;;;;;15.90;6.43;;;;;;;17.26;100.00;100569.94;5065257;28;20078;-71
2022/07/29 07:39:58;;;;;;;15.40;6.53;;;;;;;17.28;100.00;100566.22;5082514;28;20024;-71
2022/07/29 07:42:24;;;;;;;8.50;5.82;;;;;;;17.48;100.00;100582.44;5085585;28;20024;-71
2022/07/29 07:44:49;;;;;;;8.23;5.38;;;;;;;17.52;100.00;100583.91;5068802;28;20388;-70
2022/07/29 07:47:19;;;;;;;9.35;6.25;;;;;;;17.40;100.00;100575.09;5075074;28;20103;-71
2022/07/29 07:49:47;;;;;;;15.43;6.35;;;;;;;17.17;100.00;100546.72;5055902;28;20021;-70
2022/07/29 07:52:15;;;;;;;9.65;5.82;;;;;;;17.10;100.00;100564.91;5063061;28;20054;-72
2022/07/29 07:54:40;;;;;;;11.43;5.57;;;;;;;17.09;100.00;100587.16;5056257;28;20412;-71
2022/07/29 07:57:06;;;;;;;7.60;5.85;;;;;;;17.06;100.00;100579.41;5073575;28;20025;-72
2022/07/29 07:59:31;;;;;;;10.07;6.00;;;;;;;17.08;100.00;100582.78;5077688;28;20135;-71
2022/07/29 08:01:57;;;;;;;10.98;7.05;;;;;;;16.97;100.00;100550.88;5067156;28;20037;-73
2022/07/29 08:04:24;;;;;;;7.45;5.70;;;;;;;17.12;100.00;100581.59;5065743;28;20364;-72
2022/07/29 08:06:50;;;;;;;8.13;6.65;;;;;;;17.16;100.00;100588.38;5072088;28;20042;-71
2022/07/29 08:09:28;;;;;;;8.48;6.93;;;;;;;17.14;100.00;100577.03;5060040;28;20036;-72
2022/07/29 08:11:53;;;;;;;10.65;7.60;;;;;;;17.22;100.00;100585.28;5064295;28;20114;-73
2022/07/29 08:14:19;;;;;;;9.25;7.15;;;;;;;17.17;100.00;100570.63;5054802;28;20021;-73
2022/07/29 08:16:44;;;;;;;11.13;6.78;;;;;;;17.26;100.00;100578.78;5089174;28;20023;-71
2022/07/29 08:19:10;;;;;;;9.98;7.38;;;;;;;17.33;100.00;100577.34;5073071;28;20455;-71
2022/07/29 08:21:35;;;;;;;13.63;8.13;;;;;;;17.38;100.00;100577.84;5073540;28;20391;-71
2022/07/29 08:26:45;;;;;;;10.77;7.75;;;;;;;17.64;100.00;100593.66;5071901;28;20090;-71
2022/07/29 08:29:10;;;;;;;16.75;7.13;;;;;;;17.59;100.00;100586.03;5058519;28;20025;-71
2022/07/29 08:31:36;;;;;;;11.27;6.78;;;;;;;17.67;100.00;100593.44;5056827;28;20028;-70
2022/07/29 08:34:03;;;;;;;9.00;7.25;;;;;;;17.43;100.00;100528.81;5058020;28;20036;-70
2022/07/29 08:36:28;;;;;;;8.90;6.05;;;;;;;17.98;100.00;100592.72;5073936;28;20112;-70
2022/07/29 08:38:54;;;;;;;9.02;6.47;;;;;;;18.13;100.00;100601.34;5077255;28;20136;-71
2022/07/29 08:41:19;;;;;;;9.35;7.82;;;;;;;18.23;100.00;100602.31;5054457;28;20435;-71
2022/07/29 08:43:45;;;;;;;10.32;6.82;;;;;;;17.76;100.00;100524.44;5065236;28;20036;-70
2022/07/29 08:46:11;;;;;;;10.20;6.93;;;;;;;18.20;100.00;100592.78;5065773;28;20028;-71
2022/07/29 08:48:36;;;;;;;8.05;5.30;;;;;;;18.25;100.00;100598.56;5060281;28;20101;-71
2022/07/29 08:51:02;;;;;;;9.00;5.68;;;;;;;18.39;100.00;100605.44;5058332;28;20107;-71
2022/07/29 08:53:28;;;;;;;11.55;6.78;;;;;;;18.42;100.00;100597.22;5060550;28;20032;-71
2022/07/29 08:55:54;;;;;;;8.80;6.57;;;;;;;18.54;100.00;100595.44;5067779;28;20056;-70
2022/07/29 08:58:20;;;;;;;12.00;7.15;;;;;;;18.74;100.00;100606.19;5074668;28;20380;-71
2022/07/29 09:00:51;;;;;;;13.18;6.22;;;;;;;18.59;100.00;100593.28;5068812;28;20468;-71
2022/07/29 09:03:19;;;;;;;6.88;5.50;;;;;;;18.60;100.00;100594.94;5068509;28;20055;-71
2022/07/29 09:05:47;;;;;;;7.20;4.00;;;;;;;18.86;100.00;100612.31;5075700;28;20145;-70
2022/07/29 09:08:14;;;;;;;9.77;5.05;;;;;;;19.03;100.00;100614.47;5056990;28;20025;-71
2022/07/29 09:10:40;;;;;;;8.10;5.80;;;;;;;19.06;100.00;100608.88;5050459;28;20029;-71
2022/07/29 09:13:05;;;;;;;7.50;5.63;;;;;;;19.14;100.00;100614.44;5069974;28;20380;-71
2022/07/29 09:15:30;;;;;;;10.82;5.15;;;;;;;19.17;100.00;100595.53;5054948;28;20395;-70
2022/07/29 09:17:58;;;;;;;6.35;4.25;;;;;;;19.47;100.00;100624.13;5053709;28;20481;-71
2022/07/29 09:20:24;;;;;;;9.27;5.22;;;;;;;19.51;100.00;100600.75;5056581;28;20032;-71
2022/07/29 09:22:52;;;;;;;15.15;5.07;;;;;;;19.42;100.00;100613.03;5055405;28;20032;-72
2022/07/29 09:25:38;;;;;;;7.43;4.53;;;;;;;19.52;100.00;100605.09;5072902;28;20527;-72
2022/07/29 09:28:16;;;;;;;7.05;4.95;;;;;;;19.58;100.00;100617.91;5057822;28;20029;-72
2022/07/29 09:30:56;;;;;;;26.15;6.10;;;;;;;19.58;100.00;100616.09;5066122;28;20090;-72
2022/07/29 09:33:23;;;;;;;7.32;5.45;;;;;;;19.50;100.00;100591.06;5055623;28;20025;-71
2022/07/29 09:36:06;;;;;;;9.45;5.45;;;;;;;19.72;100.00;100598.94;5051823;28;20043;-72
2022/07/29 09:38:33;;;;;;;9.77;5.45;;;;;;;19.91;100.00;100625.72;5054301;28;20032;-72
2022/07/29 09:41:00;;;;;;;13.85;6.07;;;;;;;19.88;100.00;100607.31;5053420;28;20025;-72
2022/07/29 09:43:26;;;;;;;7.13;5.00;;;;;;;19.88;100.00;100585.97;5083713;28;20492;-72
2022/07/29 09:45:51;;;;;;;9.75;5.63;;;;;;;20.12;100.00;100615.88;5066806;28;20037;-72
2022/07/29 09:48:22;;;;;;;7.70;5.10;;;;;;;20.16;100.00;100619.97;5065898;28;20177;-72
2022/07/29 09:50:49;;;;;;;7.22;5.25;;;;;;;20.21;100.00;100612.41;5047501;28;20037;-72
2022/07/29 09:53:44;;;;;;;8.10;4.93;;;;;;;20.38;100.00;100616.31;5053616;28;20068;-72
2022/07/29 09:56:10;;;;;;;8.20;5.53;;;;;;;20.39;100.00;100607.34;5047470;28;20040;-73
2022/07/29 09:58:36;;;;;;;10.38;4.45;;;;;;;20.52;100.00;100613.28;5052151;28;20029;-72
2022/07/29 10:01:01;;;;;;;7.57;3.95;;;;;;;20.64;100.00;100609.53;5067098;28;20029;-72
2022/07/29 10:03:27;;;;;;;10.48;4.40;;;;;;;20.71;100.00;100607.16;5083751;28;20388;-72
2022/07/29 10:06:09;;;;;;;6.80;4.85;;;;;;;20.84;100.00;100619.28;5052900;28;20070;-73
2022/07/29 10:08:35;;;;;;;6.22;4.03;;;;;;;20.92;100.00;100626.59;5052759;28;20093;-72
2022/07/29 10:11:14;;;;;;;6.68;4.00;;;;;;;20.93;100.00;100622.97;5049715;28;20025;-72
2022/07/29 10:13:41;;;;;;;5.80;3.50;;;;;;;21.03;100.00;100621.16;5054233;28;20028;-72
2022/07/29 10:16:07;;;;;;;4.65;3.03;;;;;;;21.03;100.00;100601.59;5073133;28;20025;-71
2022/07/29 10:18:32;;;;;;;6.20;2.72;;;;;;;20.95;100.00;100588.94;5063453;28;20032;-72
2022/07/29 10:21:00;;;;;;;5.05;2.75;;;;;;;21.22;100.00;100615.88;5079168;28;20841;-71
2022/07/29 10:23:26;;;;;;;4.80;2.50;;;;;;;21.34;100.00;100616.56;5063979;28;20032;-71
2022/07/29 10:25:52;;;;;;;7.78;3.88;;;;;;;21.29;100.00;100600.13;5064807;28;20067;-71
2022/07/29 10:28:17;;;;;;;4.78;3.35;;;;;;;21.40;100.00;100618.69;5082237;28;20057;-72
2022/07/29 10:30:44;;;;;;;4.72;3.22;;;;;;;21.37;100.00;100595.75;5043076;28;20028;-71
2022/07/29 10:33:28;;;;;;;6.07;3.15;;;;;;;21.66;100.00;100608.25;5042725;28;20391;-70
2022/07/29 10:35:57;;;;;;;7.47;4.07;;;;;;;21.86;100.00;100607.25;5054302;28;20087;-72
2022/07/29 10:39:01;;;;;;;6.03;2.72;;;;;;;21.93;100.00;100602.19;5090418;28;20074;-71
2022/07/29 10:41:48;;;;;;;4.63;2.47;;;;;;;22.07;100.00;100599.88;5030237;28;20034;-71
2022/07/29 10:44:22;;;;;;;3.55;2.20;;;;;;;22.04;100.00;100588.63;5051725;28;20118;-71
2022/07/29 10:46:48;;;;;;;6.85;3.67;;;;;;;22.02;100.00;100564.69;5040692;28;20120;-71
2022/07/29 10:49:17;;;;;;;5.65;3.20;;;;;;;22.30;100.00;100601.22;5083712;28;20048;-72
2022/07/29 10:52:01;;;;;;;5.80;2.50;;;;;;;22.41;100.00;100594.81;5058484;28;20467;-72
2022/07/29 10:54:38;;;;;;;3.70;2.05;;;;;;;22.42;100.00;100599.19;5072561;28;20086;-72
2022/07/29 10:57:14;;;;;;;4.53;2.28;;;;;;;22.49;100.00;100602.13;5069012;28;20031;-71
2022/07/29 10:59:40;;;;;;;5.35;2.20;;;;;;;22.59;100.00;100605.59;5055297;28;20044;-72
2022/07/29 11:02:33;;;;;;;4.82;2.65;;;;;;;22.73;100.00;100614.03;5072873;28;20445;-72
2022/07/29 11:04:59;;;;;;;6.53;2.60;;;;;;;22.87;100.00;100604.63;5061342;28;20078;-72
2022/07/29 11:07:25;;;;;;;5.28;2.83;;;;;;;22.89;100.00;100602.63;5065529;28;20116;-71
2022/07/29 11:10:21;;;;;;;7.13;2.45;;;;;;;23.03;100.00;100602.13;5054710;28;20417;-72
2022/07/29 11:12:47;;;;;;;3.63;2.20;;;;;;;23.17;100.00;100600.75;5042826;28;20045;-69
2022/07/29 11:15:18;;;;;;;4.63;2.65;;;;;;;23.33;100.00;100569.56;5063415;28;20029;-70
2022/07/29 11:18:00;;;;;;;4.82;2.13;;;;;;;23.84;100.00;100594.81;5071072;28;20025;-71
2022/07/29 11:20:31;;;;;;;4.35;2.13;;;;;;;24.04;100.00;100596.28;5067045;28;20487;-72
2022/07/29 11:22:57;;;;;;;5.93;2.13;;;;;;;24.23;98.58;100590.72;5059615;28;20021;-72
2022/07/29 11:25:22;;;;;;;4.63;2.20;;;;;;;24.17;97.72;100588.69;5071038;28;20362;-72
2022/07/29 11:27:48;;;;;;;7.28;1.58;;;;;;;24.10;97.64;100584.91;5055189;28;20060;-71
2022/07/29 11:30:14;;;;;;;4.18;2.22;;;;;;;24.39;94.96;100573.84;5053283;28;20028;-71